Time;durP1;ratioP1;P1;durP2;ratioP2;P2;SDS_P1;SDS_P2;PMS_P1;PMS_P2;Temp;Humidity;BMP_temperature;BMP_pressure;BME280_temperature;BME280_humidity;BME280_pressure;Samples;Min_cycle;Max_cycle;Signal;HPM_P1;HPM_P2
2022/07/24 00:00:32;;;;;;;13.10;11.80;;;;;;;20.44;81.13;100353.74;105835;1277;23023;-80
2022/07/24 00:02:58;;;;;;;14.20;12.70;;;;;;;20.47;81.28;100351.79;104906;1281;22531;-80
2022/07/24 00:05:25;;;;;;;12.80;11.70;;;;;;;20.53;81.44;100354.85;105297;1282;23398;-79
2022/07/24 00:07:52;;;;;;;12.50;11.20;;;;;;;20.57;81.28;100351.30;105050;1285;22627;-83
2022/07/24 00:10:19;;;;;;;13.60;12.30;;;;;;;20.57;81.09;100354.14;105151;1284;25232;-79
2022/07/24 00:12:46;;;;;;;14.00;12.40;;;;;;;20.52;81.12;100353.12;105959;1282;22805;-79
2022/07/24 00:15:13;;;;;;;17.80;14.60;;;;;;;20.49;81.29;100349.70;105548;1283;22658;-81
2022/07/24 00:17:40;;;;;;;15.40;12.40;;;;;;;20.47;81.22;100354.67;105374;1282;22675;-82
2022/07/24 00:20:08;;;;;;;13.40;12.20;;;;;;;20.46;81.46;100356.49;105529;1284;22556;-80
2022/07/24 00:22:35;;;;;;;13.30;11.90;;;;;;;20.45;81.43;100362.63;106451;1277;22826;-79
2022/07/24 00:25:03;;;;;;;13.30;12.00;;;;;;;20.45;81.41;100359.54;106778;1277;25410;-77
2022/07/24 00:27:30;;;;;;;15.00;13.00;;;;;;;20.46;81.51;100360.27;106548;1278;24229;-76
2022/07/24 00:29:56;;;;;;;16.10;14.40;;;;;;;20.48;81.55;100355.14;106659;1278;25595;-78
2022/07/24 00:32:23;;;;;;;14.20;12.90;;;;;;;20.40;81.55;100355.03;106597;1277;25245;-78
2022/07/24 00:34:51;;;;;;;11.70;10.40;;;;;;;20.31;81.59;100356.90;106276;1278;25403;-80
2022/07/24 00:37:18;;;;;;;14.40;12.10;;;;;;;20.21;81.84;100355.79;105910;1278;22536;-81
2022/07/24 00:39:47;;;;;;;13.90;12.60;;;;;;;20.16;82.29;100354.74;105744;1278;22508;-78
2022/07/24 00:42:14;;;;;;;13.80;12.50;;;;;;;20.11;82.63;100355.02;105785;1278;22536;-75
2022/07/24 00:44:41;;;;;;;17.50;13.30;;;;;;;20.06;82.84;100359.17;106043;1277;22794;-78
2022/07/24 00:47:09;;;;;;;14.10;12.50;;;;;;;20.02;83.07;100360.42;105802;1277;23928;-77
2022/07/24 00:49:37;;;;;;;20.40;13.60;;;;;;;20.01;83.15;100362.60;106145;1276;22546;-78
2022/07/24 00:52:04;;;;;;;12.70;11.40;;;;;;;20.05;83.18;100362.63;105995;1276;24286;-77
2022/07/24 00:54:31;;;;;;;13.60;11.90;;;;;;;20.04;83.14;100363.39;105711;1278;24657;-77
2022/07/24 00:56:58;;;;;;;13.60;12.20;;;;;;;19.98;83.25;100361.15;105919;1277;22783;-79
2022/07/24 00:59:25;;;;;;;14.20;12.50;;;;;;;19.99;83.39;100368.60;105927;1278;25879;-79
2022/07/24 01:01:52;;;;;;;15.70;12.60;;;;;;;20.00;83.25;100374.29;105766;1278;25413;-79
2022/07/24 01:04:19;;;;;;;15.00;11.70;;;;;;;19.98;83.27;100374.20;105852;1277;24259;-79
2022/07/24 01:06:47;;;;;;;13.40;12.20;;;;;;;19.93;83.31;100376.56;105944;1278;24217;-78
2022/07/24 01:09:15;;;;;;;13.60;12.10;;;;;;;19.94;83.27;100382.99;105906;1277;22532;-80
2022/07/24 01:11:42;;;;;;;14.20;10.90;;;;;;;19.92;83.11;100377.18;105756;1277;25886;-80
2022/07/24 01:14:13;;;;;;;14.00;12.40;;;;;;;19.87;83.21;100379.55;105637;1278;22554;-80
2022/07/24 01:16:40;;;;;;;11.70;10.50;;;;;;;19.89;83.35;100384.48;105742;1279;22608;-78
2022/07/24 01:19:07;;;;;;;16.60;11.80;;;;;;;19.89;83.34;100382.84;105947;1277;25381;-81
2022/07/24 01:21:35;;;;;;;16.80;11.70;;;;;;;19.84;83.21;100388.43;105691;1277;23282;-79
2022/07/24 01:24:02;;;;;;;10.40;9.30;;;;;;;19.84;82.74;100393.30;105755;1278;22557;-80
2022/07/24 01:26:29;;;;;;;13.20;6.30;;;;;;;19.82;81.25;100399.11;105952;1277;25395;-81
2022/07/24 01:28:56;;;;;;;5.30;4.60;;;;;;;19.75;79.42;100401.73;105885;1277;26087;-79
2022/07/24 01:31:23;;;;;;;5.50;4.00;;;;;;;19.72;78.14;100405.08;106028;1277;26728;-78
2022/07/24 01:33:50;;;;;;;8.40;4.00;;;;;;;19.69;76.91;100409.69;105691;1278;25438;-79
2022/07/24 01:36:17;;;;;;;4.40;4.00;;;;;;;19.57;76.19;100414.33;106001;1276;24444;-79
2022/07/24 01:38:44;;;;;;;4.90;3.30;;;;;;;19.57;76.09;100419.00;105508;1277;24231;-83
2022/07/24 01:41:11;;;;;;;5.00;2.80;;;;;;;19.46;74.58;100414.84;105784;1277;22577;-77
2022/07/24 01:43:38;;;;;;;3.00;2.70;;;;;;;19.33;74.10;100415.27;105769;1277;24324;-79
2022/07/24 01:46:05;;;;;;;3.70;2.30;;;;;;;19.27;73.85;100415.73;105875;1277;25434;-80
2022/07/24 01:48:32;;;;;;;4.30;3.30;;;;;;;19.18;73.42;100418.27;105717;1277;25418;-79
2022/07/24 01:50:59;;;;;;;2.80;2.50;;;;;;;19.13;73.44;100415.27;105881;1278;24223;-78
2022/07/24 01:53:26;;;;;;;3.00;2.50;;;;;;;19.07;73.52;100414.07;105894;1277;22714;-78
2022/07/24 01:55:54;;;;;;;4.00;2.60;;;;;;;19.04;73.54;100413.66;105533;1278;25243;-78
2022/07/24 01:58:21;;;;;;;2.80;2.40;;;;;;;18.98;73.24;100415.02;105949;1276;23007;-81
2022/07/24 02:00:49;;;;;;;8.20;2.70;;;;;;;18.89;73.31;100418.75;105975;1278;22697;-78
2022/07/24 02:03:17;;;;;;;3.70;2.50;;;;;;;18.89;73.79;100418.95;105827;1278;25432;-78
2022/07/24 02:05:44;;;;;;;3.20;2.40;;;;;;;18.95;74.02;100418.14;105703;1277;24752;-77
2022/07/24 02:08:11;;;;;;;2.50;2.20;;;;;;;19.00;73.96;100425.27;105674;1277;24306;-78
2022/07/24 02:10:39;;;;;;;5.30;2.20;;;;;;;19.03;73.60;100425.46;105470;1277;25277;-76
2022/07/24 02:13:06;;;;;;;5.10;2.00;;;;;;;19.03;73.28;100431.38;105298;1278;26891;-78
2022/07/24 02:15:33;;;;;;;3.30;2.30;;;;;;;19.01;72.68;100428.41;105609;1276;22545;-79
2022/07/24 02:18:02;;;;;;;3.30;2.20;;;;;;;18.93;72.29;100428.40;105671;1277;22551;-78
2022/07/24 02:20:30;;;;;;;3.70;2.20;;;;;;;18.87;72.50;100429.90;105420;1278;25324;-78
2022/07/24 02:22:57;;;;;;;3.80;2.10;;;;;;;18.81;72.32;100437.67;105520;1278;22557;-76
2022/07/24 02:25:24;;;;;;;3.20;2.60;;;;;;;18.84;72.58;100438.98;105498;1278;22570;-78
2022/07/24 02:27:51;;;;;;;5.20;2.20;;;;;;;18.86;72.64;100433.87;105946;1276;22694;-79
2022/07/24 02:30:21;;;;;;;3.90;2.20;;;;;;;18.91;72.58;100433.69;105501;1277;22708;-79
2022/07/24 02:32:48;;;;;;;2.50;2.10;;;;;;;18.94;72.36;100430.14;105982;1275;22557;-80
2022/07/24 02:35:15;;;;;;;3.70;2.40;;;;;;;18.94;72.14;100428.72;105829;1276;22554;-76
2022/07/24 02:37:44;;;;;;;3.20;2.00;;;;;;;18.87;71.67;100433.84;105793;1274;23829;-78
2022/07/24 02:40:12;;;;;;;2.70;2.10;;;;;;;18.80;71.59;100435.38;106174;1274;25262;-78
2022/07/24 02:42:39;;;;;;;3.10;2.00;;;;;;;18.71;71.55;100437.89;105433;1276;22656;-77
2022/07/24 02:45:07;;;;;;;3.10;2.40;;;;;;;18.66;71.95;100434.73;105694;1278;22501;-79
2022/07/24 02:47:36;;;;;;;2.70;2.20;;;;;;;18.66;72.28;100436.14;105810;1275;22569;-78
2022/07/24 02:50:03;;;;;;;4.50;2.30;;;;;;;18.60;72.12;100431.59;105841;1274;22567;-78
2022/07/24 02:52:30;;;;;;;3.00;1.70;;;;;;;18.51;72.09;100431.95;105772;1277;26534;-81
2022/07/24 02:54:57;;;;;;;5.30;2.10;;;;;;;18.46;72.12;100433.79;105743;1274;22805;-78
2022/07/24 02:57:24;;;;;;;7.10;2.00;;;;;;;18.40;72.16;100428.29;105625;1280;26943;-78
2022/07/24 02:59:52;;;;;;;2.30;1.80;;;;;;;18.42;72.37;100427.67;105355;1281;22546;-77
2022/07/24 03:02:19;;;;;;;5.60;2.20;;;;;;;18.47;72.54;100427.46;105398;1279;22586;-78
2022/07/24 03:04:47;;;;;;;8.50;2.50;;;;;;;18.47;72.47;100426.22;105472;1280;25656;-76
2022/07/24 03:07:14;;;;;;;3.20;1.90;;;;;;;18.49;72.44;100431.33;105449;1281;23419;-81
2022/07/24 03:09:41;;;;;;;3.80;2.20;;;;;;;18.44;72.21;100434.55;105539;1279;22708;-73
2022/07/24 03:12:09;;;;;;;3.00;2.00;;;;;;;18.46;72.37;100436.45;105556;1280;25777;-77
2022/07/24 03:14:37;;;;;;;3.10;1.70;;;;;;;18.44;72.09;100438.67;105482;1279;25535;-79
2022/07/24 03:17:05;;;;;;;2.10;1.90;;;;;;;18.38;71.91;100444.63;105741;1279;25255;-80
2022/07/24 03:19:32;;;;;;;3.20;2.10;;;;;;;18.31;71.99;100449.88;105583;1280;22566;-79
2022/07/24 03:21:59;;;;;;;4.20;1.90;;;;;;;18.34;72.16;100455.98;105688;1274;23957;-78
2022/07/24 03:24:26;;;;;;;2.30;1.60;;;;;;;18.29;71.84;100458.88;105961;1276;24329;-79
2022/07/24 03:26:53;;;;;;;3.90;1.50;;;;;;;18.20;71.85;100462.61;106009;1274;22547;-80
2022/07/24 03:29:20;;;;;;;4.60;1.90;;;;;;;18.24;72.17;100462.64;105905;1274;22553;-80
2022/07/24 03:31:47;;;;;;;4.20;1.90;;;;;;;18.27;71.75;100463.76;105928;1274;27101;-79
2022/07/24 03:34:14;;;;;;;6.20;2.00;;;;;;;18.27;71.81;100466.26;105390;1281;26607;-79
2022/07/24 03:36:41;;;;;;;2.90;2.20;;;;;;;18.29;71.70;100465.66;105391;1281;24313;-82
2022/07/24 03:39:09;;;;;;;3.60;1.90;;;;;;;18.32;71.79;100467.48;105372;1282;24036;-77
2022/07/24 03:41:35;;;;;;;2.80;2.10;;;;;;;18.31;71.67;100472.52;105309;1282;24295;-79
2022/07/24 03:44:03;;;;;;;3.30;2.00;;;;;;;18.30;71.66;100477.02;105905;1281;22702;-78
2022/07/24 03:46:30;;;;;;;4.60;1.80;;;;;;;18.28;71.74;100476.05;107050;1281;24268;-78
2022/07/24 03:48:58;;;;;;;3.20;2.00;;;;;;;18.30;71.69;100477.15;107651;1281;22558;-79
2022/07/24 03:51:25;;;;;;;3.90;2.00;;;;;;;18.29;71.49;100477.23;107271;1281;25370;-79
2022/07/24 03:53:53;;;;;;;3.70;2.00;;;;;;;18.23;71.48;100478.54;106757;1274;26682;-80
2022/07/24 03:56:21;;;;;;;4.10;2.20;;;;;;;18.19;71.64;100481.91;106212;1277;25252;-79
2022/07/24 03:58:53;;;;;;;5.80;1.90;;;;;;;18.11;71.58;100476.67;107494;1276;22541;-77
2022/07/24 04:01:21;;;;;;;3.70;2.30;;;;;;;18.05;71.63;100483.30;108501;1274;22474;-79
2022/07/24 04:03:48;;;;;;;4.00;2.20;;;;;;;18.05;72.02;100481.33;107240;1276;22576;-78
2022/07/24 04:06:15;;;;;;;4.00;2.40;;;;;;;18.10;71.87;100482.58;106087;1275;22561;-81
2022/07/24 04:08:42;;;;;;;5.20;2.60;;;;;;;18.06;71.63;100485.92;106152;1274;23994;-80
2022/07/24 04:11:09;;;;;;;4.80;2.70;;;;;;;18.05;71.90;100487.20;106104;1274;22531;-83
2022/07/24 04:13:36;;;;;;;6.80;2.70;;;;;;;18.01;71.85;100485.59;105749;1276;25259;-79
2022/07/24 04:16:08;;;;;;;4.80;2.40;;;;;;;17.99;71.92;100486.23;106073;1274;25331;-76
2022/07/24 04:18:36;;;;;;;4.20;2.80;;;;;;;17.93;71.98;100489.82;106256;1274;26520;-77
2022/07/24 04:21:03;;;;;;;8.80;2.40;;;;;;;17.83;72.12;100491.24;105427;1281;25703;-81
2022/07/24 04:23:30;;;;;;;4.70;2.70;;;;;;;17.86;72.02;100491.69;105727;1281;22684;-82
2022/07/24 04:25:58;;;;;;;5.30;2.60;;;;;;;17.81;72.10;100487.79;105483;1282;24005;-79
2022/07/24 04:28:24;;;;;;;4.70;2.80;;;;;;;17.78;72.40;100487.70;105308;1281;24376;-77
2022/07/24 04:30:51;;;;;;;5.70;3.00;;;;;;;17.79;72.54;100495.87;105513;1281;25355;-76
2022/07/24 04:33:18;;;;;;;6.30;2.90;;;;;;;17.77;72.75;100498.98;105432;1281;25316;-74
2022/07/24 04:35:45;;;;;;;4.20;2.50;;;;;;;17.70;72.88;100496.90;105383;1281;25355;-80
2022/07/24 04:38:12;;;;;;;6.30;2.50;;;;;;;17.66;73.24;100497.60;105360;1281;26243;-79
2022/07/24 04:40:40;;;;;;;5.70;3.00;;;;;;;17.67;73.45;100494.86;105642;1278;22557;-77
2022/07/24 04:43:08;;;;;;;3.10;2.20;;;;;;;17.68;73.40;100496.27;105619;1277;22544;-78
2022/07/24 04:45:37;;;;;;;7.80;2.90;;;;;;;17.64;73.40;100496.42;105707;1277;26548;-78
2022/07/24 04:48:05;;;;;;;3.20;2.20;;;;;;;17.61;73.59;100497.05;105638;1278;22885;-77
2022/07/24 04:50:33;;;;;;;5.70;2.50;;;;;;;17.63;73.71;100505.17;105856;1278;25504;-79
2022/07/24 04:53:00;;;;;;;5.20;2.40;;;;;;;17.61;73.60;100503.14;106307;1277;24357;-78
2022/07/24 04:55:28;;;;;;;7.00;2.40;;;;;;;17.60;73.69;100503.51;105640;1277;22689;-78
2022/07/24 04:57:54;;;;;;;5.70;3.00;;;;;;;17.59;73.28;100503.89;105626;1278;24252;-79
2022/07/24 05:00:21;;;;;;;6.90;2.50;;;;;;;17.58;73.47;100503.03;105982;1276;23988;-77
2022/07/24 05:02:49;;;;;;;5.40;2.60;;;;;;;17.62;73.44;100504.70;106828;1276;25024;-74
2022/07/24 05:05:15;;;;;;;4.50;2.70;;;;;;;17.61;73.35;100509.54;105685;1276;22550;-78
2022/07/24 05:07:43;;;;;;;4.70;2.80;;;;;;;17.65;73.37;100507.97;105744;1276;22553;-81
2022/07/24 05:10:10;;;;;;;4.30;2.40;;;;;;;17.69;73.27;100507.83;106197;1276;22752;-77
2022/07/24 05:12:37;;;;;;;4.10;2.40;;;;;;;17.67;72.88;100509.29;105877;1276;22522;-81
2022/07/24 05:15:06;;;;;;;5.10;2.00;;;;;;;17.63;72.56;100515.14;105520;1276;25598;-79
2022/07/24 05:17:35;;;;;;;5.20;2.30;;;;;;;17.67;72.48;100516.95;106128;1276;22696;-80
2022/07/24 05:20:07;;;;;;;8.00;2.50;;;;;;;17.73;72.42;100517.65;106032;1276;24225;-78
2022/07/24 05:22:33;;;;;;;3.50;2.10;;;;;;;17.76;71.87;100518.07;106012;1276;22528;-80
2022/07/24 05:25:00;;;;;;;8.10;3.10;;;;;;;17.73;71.33;100522.98;105735;1276;22739;-79
2022/07/24 05:27:27;;;;;;;5.30;2.60;;;;;;;17.66;71.70;100514.70;105910;1278;22560;-78
2022/07/24 05:29:54;;;;;;;2.50;1.90;;;;;;;17.61;71.58;100515.23;105629;1278;23145;-79
2022/07/24 05:32:21;;;;;;;4.20;2.30;;;;;;;17.60;71.66;100512.95;105983;1274;25365;-78
2022/07/24 05:34:48;;;;;;;6.80;2.60;;;;;;;17.66;71.81;100518.25;105809;1274;25521;-79
2022/07/24 05:37:15;;;;;;;5.90;2.40;;;;;;;17.70;71.84;100520.06;105739;1276;24076;-81
2022/07/24 05:39:42;;;;;;;1.90;1.70;;;;;;;17.76;71.56;100516.10;105489;1277;25403;-79
2022/07/24 05:42:09;;;;;;;4.30;2.20;;;;;;;17.77;71.30;100516.25;106127;1274;25356;-81
2022/07/24 05:44:37;;;;;;;4.00;1.70;;;;;;;17.80;70.82;100520.77;106023;1276;26176;-81
2022/07/24 05:47:04;;;;;;;5.10;1.70;;;;;;;17.82;69.84;100522.29;105919;1276;25525;-80
2022/07/24 05:49:34;;;;;;;3.90;1.70;;;;;;;17.82;69.00;100515.85;105794;1274;25516;-78
2022/07/24 05:52:02;;;;;;;2.70;1.80;;;;;;;17.78;68.08;100518.51;106322;1274;22834;-79
2022/07/24 05:54:35;;;;;;;2.50;1.60;;;;;;;17.75;67.74;100522.92;106066;1276;22550;-77
2022/07/24 05:57:02;;;;;;;4.80;2.10;;;;;;;17.74;67.87;100521.19;106141;1274;26722;-78
2022/07/24 05:59:29;;;;;;;2.30;1.60;;;;;;;17.76;67.97;100526.23;106777;1274;22698;-77
2022/07/24 06:01:56;;;;;;;3.20;1.70;;;;;;;17.75;67.10;100526.30;105821;1275;22567;-76
2022/07/24 06:04:23;;;;;;;4.10;1.50;;;;;;;17.68;66.42;100526.34;106390;1275;22716;-78
2022/07/24 06:06:50;;;;;;;3.20;1.50;;;;;;;17.64;66.36;100526.85;107117;1277;23987;-79
2022/07/24 06:09:17;;;;;;;2.10;1.30;;;;;;;17.61;66.01;100525.92;107450;1281;22987;-78
2022/07/24 06:11:44;;;;;;;7.20;1.50;;;;;;;17.60;66.20;100530.92;107388;1281;25447;-77
2022/07/24 06:14:11;;;;;;;2.70;1.30;;;;;;;17.62;66.28;100528.16;106477;1281;25538;-77
2022/07/24 06:16:38;;;;;;;2.70;1.40;;;;;;;17.68;66.35;100528.52;105669;1281;25628;-79
2022/07/24 06:19:05;;;;;;;3.00;1.70;;;;;;;17.72;66.34;100528.89;105363;1281;23117;-81
2022/07/24 06:21:32;;;;;;;3.20;1.40;;;;;;;17.74;65.33;100530.27;105547;1281;22580;-78
2022/07/24 06:23:59;;;;;;;4.10;1.80;;;;;;;17.72;65.43;100528.02;105561;1281;23351;-80
2022/07/24 06:26:26;;;;;;;2.90;1.20;;;;;;;17.71;65.35;100530.35;105526;1281;22598;-79
2022/07/24 06:28:53;;;;;;;7.20;2.00;;;;;;;17.72;65.69;100537.26;105893;1275;25468;-77
2022/07/24 06:31:19;;;;;;;2.30;1.50;;;;;;;17.77;65.54;100535.47;106293;1274;23928;-78
2022/07/24 06:33:46;;;;;;;6.70;1.90;;;;;;;17.82;65.42;100537.09;105978;1274;24232;-77
2022/07/24 06:36:13;;;;;;;3.40;1.60;;;;;;;17.86;65.21;100543.52;105453;1279;24332;-75
2022/07/24 06:38:40;;;;;;;3.60;1.30;;;;;;;17.90;65.07;100537.30;105591;1279;24328;-78
2022/07/24 06:41:07;;;;;;;3.50;1.50;;;;;;;17.93;64.48;100536.30;105188;1280;492331;-78
2022/07/24 06:43:34;;;;;;;2.90;1.60;;;;;;;17.90;64.59;100527.52;104934;1284;22612;-81
2022/07/24 06:46:01;;;;;;;2.40;1.40;;;;;;;17.93;64.38;100535.60;105028;1284;24457;-76
2022/07/24 06:48:30;;;;;;;1.30;1.20;;;;;;;17.95;64.54;100531.95;105002;1284;25507;-81
2022/07/24 06:50:58;;;;;;;3.50;1.40;;;;;;;18.00;64.51;100536.25;104812;1285;22758;-76
2022/07/24 06:53:25;;;;;;;2.90;1.40;;;;;;;18.05;64.06;100538.00;104900;1285;22540;-78
2022/07/24 06:55:55;;;;;;;3.10;1.20;;;;;;;18.04;63.12;100533.56;105456;1281;24306;-78
2022/07/24 06:58:22;;;;;;;3.80;1.40;;;;;;;18.06;62.95;100538.15;105504;1281;25431;-76
2022/07/24 07:00:49;;;;;;;3.60;1.30;;;;;;;18.08;62.94;100538.60;105419;1281;24176;-78
2022/07/24 07:03:17;;;;;;;4.10;1.30;;;;;;;18.10;62.39;100538.88;105927;1276;22538;-78
2022/07/24 07:05:44;;;;;;;3.10;1.10;;;;;;;18.11;61.96;100543.50;106328;1274;25665;-75
2022/07/24 07:08:11;;;;;;;5.10;1.40;;;;;;;18.13;62.59;100543.80;106301;1274;25425;-79
2022/07/24 07:10:39;;;;;;;3.70;1.40;;;;;;;18.20;62.44;100546.92;105920;1274;22541;-78
2022/07/24 07:13:06;;;;;;;3.70;1.30;;;;;;;18.25;62.31;100546.91;105959;1274;22585;-78
2022/07/24 07:15:34;;;;;;;2.90;1.40;;;;;;;18.32;62.41;100542.17;106037;1274;25245;-79
2022/07/24 07:18:01;;;;;;;5.50;1.40;;;;;;;18.41;62.60;100541.84;105946;1274;25386;-77
2022/07/24 07:20:27;;;;;;;3.00;1.40;;;;;;;18.50;62.59;100546.11;106188;1276;23695;-79
2022/07/24 07:22:54;;;;;;;4.40;1.30;;;;;;;18.57;62.38;100544.76;105953;1274;25242;-79
2022/07/24 07:25:21;;;;;;;5.30;1.30;;;;;;;18.64;62.20;100545.04;105742;1275;25303;-79
2022/07/24 07:27:49;;;;;;;3.60;1.30;;;;;;;18.70;62.08;100545.33;105860;1276;22556;-80
2022/07/24 07:30:16;;;;;;;1.50;1.30;;;;;;;18.77;61.35;100545.20;106067;1274;22688;-79
2022/07/24 07:32:43;;;;;;;3.40;1.40;;;;;;;18.81;60.42;100551.48;105720;1279;22537;-80
2022/07/24 07:35:10;;;;;;;2.70;1.40;;;;;;;18.84;60.56;100555.13;105684;1279;22573;-83
2022/07/24 07:37:47;;;;;;;2.20;1.30;;;;;;;18.85;60.41;100545.08;105661;1279;25246;-80
2022/07/24 07:40:14;;;;;;;1.60;1.20;;;;;;;18.93;60.31;100548.66;105726;1279;25253;-82
2022/07/24 07:42:41;;;;;;;1.90;1.50;;;;;;;19.03;59.90;100548.25;105886;1279;25458;-81
2022/07/24 07:45:08;;;;;;;2.20;1.20;;;;;;;19.10;59.29;100543.91;105694;1279;25915;-78
2022/07/24 07:47:39;;;;;;;1.20;1.10;;;;;;;19.20;59.38;100551.35;105766;1279;24766;-81
2022/07/24 07:50:07;;;;;;;3.40;1.70;;;;;;;19.28;59.43;100550.11;105720;1279;23371;-78
2022/07/24 07:52:35;;;;;;;2.30;1.30;;;;;;;19.38;59.60;100559.48;105896;1275;22544;-79
2022/07/24 07:55:03;;;;;;;1.90;1.50;;;;;;;19.46;59.23;100556.10;105940;1276;24261;-80
2022/07/24 07:57:30;;;;;;;1.60;1.30;;;;;;;19.56;59.13;100561.03;105683;1276;22778;-78
2022/07/24 08:00:19;;;;;;;1.40;1.00;;;;;;;19.63;58.30;100565.37;106783;1276;22699;-79
2022/07/24 08:02:46;;;;;;;2.90;1.50;;;;;;;19.67;58.00;100567.17;106222;1274;22534;-78
2022/07/24 08:05:13;;;;;;;2.30;1.60;;;;;;;19.78;57.74;100568.48;106161;1274;22552;-78
2022/07/24 08:07:40;;;;;;;9.30;2.00;;;;;;;19.82;57.70;100567.55;106249;1276;22545;-78
2022/07/24 08:10:07;;;;;;;2.40;1.40;;;;;;;19.88;57.56;100573.55;106129;1274;25442;-78
2022/07/24 08:12:37;;;;;;;2.00;1.20;;;;;;;20.02;57.42;100577.45;106082;1274;25326;-79
2022/07/24 08:15:06;;;;;;;1.30;1.00;;;;;;;20.11;57.51;100579.34;105903;1276;25235;-75
2022/07/24 08:17:33;;;;;;;1.90;1.50;;;;;;;20.20;57.24;100578.38;105727;1277;25333;-77
2022/07/24 08:20:00;;;;;;;3.10;1.50;;;;;;;20.29;57.22;100579.05;105879;1276;22699;-78
2022/07/24 08:22:27;;;;;;;5.30;2.00;;;;;;;20.49;57.57;100581.54;106351;1274;22584;-78
2022/07/24 08:24:54;;;;;;;2.00;1.10;;;;;;;20.70;57.36;100577.51;106005;1276;24286;-80
2022/07/24 08:27:21;;;;;;;3.80;1.40;;;;;;;20.84;56.94;100581.29;106251;1274;22551;-80
2022/07/24 08:29:48;;;;;;;2.50;1.30;;;;;;;20.82;56.78;100587.84;105955;1276;22563;-78
2022/07/24 08:32:14;;;;;;;3.60;1.30;;;;;;;20.81;56.64;100585.90;106105;1274;22605;-78
2022/07/24 08:34:41;;;;;;;3.10;1.40;;;;;;;20.90;56.62;100590.85;107847;1278;22556;-77
2022/07/24 08:37:08;;;;;;;1.10;1.00;;;;;;;20.93;56.56;100585.55;107972;1276;23798;-76
2022/07/24 08:39:35;;;;;;;3.90;1.40;;;;;;;20.91;56.61;100592.07;107020;1276;22560;-80
2022/07/24 08:42:02;;;;;;;2.80;1.70;;;;;;;20.85;56.43;100592.73;106511;1276;22547;-76
2022/07/24 08:44:29;;;;;;;1.40;1.00;;;;;;;20.78;56.53;100597.31;107105;1276;22610;-77
2022/07/24 08:46:58;;;;;;;1.20;1.10;;;;;;;20.70;56.61;100596.09;108128;1276;22543;-78
2022/07/24 08:49:30;;;;;;;1.50;1.40;;;;;;;20.71;56.97;100601.40;107718;1275;25369;-78
2022/07/24 08:52:00;;;;;;;3.00;1.50;;;;;;;20.69;56.80;100599.36;106122;1276;22528;-81
2022/07/24 08:54:27;;;;;;;5.80;1.10;;;;;;;20.62;56.88;100600.96;106187;1276;23976;-79
2022/07/24 08:56:53;;;;;;;4.30;1.40;;;;;;;20.56;57.04;100599.25;106064;1276;22730;-78
2022/07/24 08:59:22;;;;;;;1.30;1.20;;;;;;;20.60;57.44;100599.27;106066;1276;24227;-78
2022/07/24 09:01:53;;;;;;;2.20;1.30;;;;;;;20.68;57.38;100597.63;105853;1276;22594;-79
2022/07/24 09:04:44;;;;;;;3.50;1.20;;;;;;;20.70;57.34;100603.09;106035;1276;22572;-79
2022/07/24 09:07:23;;;;;;;3.10;1.60;;;;;;;20.78;57.19;100599.12;105803;1276;22616;-78
2022/07/24 09:10:12;;;;;;;2.40;1.10;;;;;;;20.87;57.22;100600.82;106008;1274;25238;-78
2022/07/24 09:12:42;;;;;;;2.40;1.10;;;;;;;20.80;56.74;100598.10;105894;1276;24201;-76
2022/07/24 09:15:23;;;;;;;1.10;1.00;;;;;;;20.77;57.18;100599.02;105991;1276;25372;-74
2022/07/24 09:17:59;;;;;;;2.30;1.30;;;;;;;20.76;56.97;100603.89;105897;1276;24785;-78
2022/07/24 09:20:27;;;;;;;2.10;0.80;;;;;;;20.63;56.74;100602.88;106007;1276;26508;-79
2022/07/24 09:22:59;;;;;;;1.20;1.10;;;;;;;20.55;57.30;100606.64;105962;1276;22548;-79
2022/07/24 09:25:34;;;;;;;2.10;1.00;;;;;;;20.53;57.37;100609.96;106055;1276;25266;-79
2022/07/24 09:28:03;;;;;;;3.00;1.10;;;;;;;20.53;57.20;100614.44;105919;1276;24288;-76
2022/07/24 09:30:33;;;;;;;1.30;1.00;;;;;;;20.52;57.13;100612.86;106045;1274;25242;-80
2022/07/24 09:33:02;;;;;;;2.80;1.60;;;;;;;20.63;57.46;100615.41;106008;1274;23937;-78
2022/07/24 09:35:37;;;;;;;2.50;1.10;;;;;;;20.69;57.20;100614.89;105836;1275;22735;-77
2022/07/24 09:38:07;;;;;;;3.20;1.20;;;;;;;20.68;57.23;100612.30;105961;1276;23104;-80
2022/07/24 09:40:37;;;;;;;4.20;1.50;;;;;;;20.70;57.20;100613.81;105912;1275;22535;-79
2022/07/24 09:43:24;;;;;;;1.20;1.10;;;;;;;20.64;57.45;100617.48;105967;1275;22532;-79
2022/07/24 09:46:10;;;;;;;1.20;1.10;;;;;;;20.64;57.57;100616.77;105971;1274;25443;-79
2022/07/24 09:48:39;;;;;;;1.00;0.90;;;;;;;20.67;57.59;100620.38;105476;1282;22777;-80
2022/07/24 09:51:12;;;;;;;2.20;1.30;;;;;;;20.67;57.78;100626.11;105565;1281;22537;-78
2022/07/24 09:53:41;;;;;;;1.70;1.00;;;;;;;20.69;57.83;100625.50;105741;1280;22563;-77
2022/07/24 09:56:15;;;;;;;1.20;1.00;;;;;;;20.65;57.94;100623.00;105433;1281;25256;-77
2022/07/24 09:58:44;;;;;;;1.40;1.20;;;;;;;20.59;58.13;100626.33;105513;1281;25244;-77
2022/07/24 10:01:13;;;;;;;1.30;1.10;;;;;;;20.48;58.89;100624.32;105451;1281;23569;-78
2022/07/24 10:03:43;;;;;;;2.00;1.20;;;;;;;20.43;59.04;100626.68;105569;1281;24288;-78
2022/07/24 10:06:13;;;;;;;1.80;1.40;;;;;;;20.46;59.29;100626.03;105461;1275;22722;-80
2022/07/24 10:08:42;;;;;;;1.50;1.40;;;;;;;20.54;59.45;100628.67;105745;1274;22699;-77
2022/07/24 10:11:12;;;;;;;1.60;1.50;;;;;;;20.59;59.64;100630.63;105859;1274;24349;-77
2022/07/24 10:13:40;;;;;;;2.10;1.40;;;;;;;20.68;59.53;100639.14;105954;1274;22708;-78
2022/07/24 10:16:13;;;;;;;3.00;1.40;;;;;;;20.71;59.39;100639.91;105986;1275;26494;-80
2022/07/24 10:18:48;;;;;;;2.10;1.60;;;;;;;20.76;59.52;100638.04;105907;1276;22878;-79
2022/07/24 10:21:18;;;;;;;1.80;1.30;;;;;;;20.75;59.44;100641.48;105852;1275;24210;-75
2022/07/24 10:24:03;;;;;;;4.40;1.90;;;;;;;20.68;59.47;100645.73;105807;1274;25382;-79
2022/07/24 10:26:40;;;;;;;5.10;1.70;;;;;;;20.75;59.99;100648.66;106037;1275;25283;-76
2022/07/24 10:29:10;;;;;;;3.10;1.80;;;;;;;20.94;59.81;100651.17;106078;1275;24762;-77
2022/07/24 10:31:43;;;;;;;1.50;1.40;;;;;;;20.97;59.40;100647.26;106232;1274;22529;-81
2022/07/24 10:34:41;;;;;;;2.90;1.70;;;;;;;21.05;59.14;100647.59;106034;1274;25479;-82
2022/07/24 10:37:41;;;;;;;1.70;1.20;;;;;;;21.10;58.88;100645.77;105974;1274;23971;-78
2022/07/24 10:40:24;;;;;;;3.00;1.60;;;;;;;21.23;58.81;100642.43;105850;1275;22707;-79
2022/07/24 10:43:06;;;;;;;1.60;1.30;;;;;;;21.50;59.19;100645.55;105795;1277;22551;-80
2022/07/24 10:45:33;;;;;;;2.00;1.40;;;;;;;21.82;58.36;100651.33;105584;1277;25505;-78
2022/07/24 10:48:19;;;;;;;4.00;1.30;;;;;;;21.90;57.58;100646.77;105665;1278;25367;-80
2022/07/24 10:51:07;;;;;;;2.40;1.90;;;;;;;21.88;57.05;100649.94;105894;1277;25477;-80
2022/07/24 10:53:37;;;;;;;3.60;2.10;;;;;;;21.86;57.23;100655.40;105681;1279;22563;-80
2022/07/24 10:56:20;;;;;;;3.00;1.90;;;;;;;21.86;57.08;100651.45;105760;1277;25357;-77
2022/07/24 10:58:58;;;;;;;3.30;1.70;;;;;;;21.88;57.03;100646.31;105552;1281;25361;-80
2022/07/24 11:01:29;;;;;;;1.40;1.30;;;;;;;21.98;56.93;100646.89;106080;1274;24240;-76
2022/07/24 11:03:58;;;;;;;2.60;1.50;;;;;;;22.03;56.68;100646.27;106012;1275;24232;-81
2022/07/24 11:06:39;;;;;;;1.70;1.60;;;;;;;22.06;56.91;100648.29;106101;1274;22578;-78
2022/07/24 11:09:06;;;;;;;3.00;1.40;;;;;;;22.28;56.95;100644.39;105942;1274;26511;-79
2022/07/24 11:11:40;;;;;;;2.50;1.30;;;;;;;22.63;55.90;100649.69;105720;1275;24237;-79
2022/07/24 11:14:10;;;;;;;1.40;1.30;;;;;;;22.63;55.27;100650.44;105768;1277;25206;-79
2022/07/24 11:16:38;;;;;;;2.10;1.40;;;;;;;22.73;55.37;100655.81;106151;1274;25250;-80
2022/07/24 11:19:05;;;;;;;1.70;1.60;;;;;;;22.77;55.51;100657.02;105836;1276;22537;-82
2022/07/24 11:21:37;;;;;;;1.70;1.50;;;;;;;22.71;54.62;100660.23;105979;1274;25038;-79